Wan Hai 232 — S6EL2 — position and weather

sailwx.info

Track history (hours):
 
Tides and Currents Weather Stations Pressure Air Temp Water Temp Dewpoint Dewpoint Depression Visibility Wind Speed Wind Dir Waves Ship Positions

Wan Hai 232

Last reported at 2017-Sep-21 16:28 UTC. Time now 2017-Sep-22 09:50 UTC.
Position N 22°49' E 116°35'.

Length 191 m; draft 8.8 m.

Type: Cargo ship. MMSI: 565131000.

Date/timePositionNaut miles runAvg speedWind from/ knotsBaromVisibWave heightAir tempDewpointWater temp
2017-Sep-21 16:28N 22°49' E 116°35'716.0
2017-Sep-21 16:00N 22°52' E 116°43'815.9
2017-Sep-21 15:30N 22°55' E 116°51'815.9
2017-Sep-21 15:00N 22°58' E 116°58'815.8
2017-Sep-21 14:30N 23°02' E 117°06'815.6
2017-Sep-21 13:59N 23°06' E 117°13'815.9
2017-Sep-21 13:29N 23°10' E 117°21'1315.5
2017-Sep-21 12:37N 23°13' E 117°35'416.5
2017-Sep-21 12:22N 23°14' E 117°39'7716.3
2017-Sep-21 07:38N 23°47' E 118°55'217.2
2017-Sep-21 07:29N 23°48' E 118°58'2116.9
2017-Sep-21 06:15N 23°55' E 119°19'417.2
2017-Sep-21 06:00N 23°57' E 119°24'817.1
2017-Sep-21 05:30N 23°60' E 119°32'817.0
2017-Sep-21 05:00N 24°03' E 119°41'917.0
2017-Sep-21 04:30N 24°06' E 119°50'816.3
2017-Sep-21 03:59N 24°09' E 119°59'816.2
2017-Sep-21 03:30N 24°11' E 120°07'1116.0
2017-Sep-21 02:50N 24°15' E 120°18'515.7
2017-Sep-21 02:30N 24°17' E 120°23'7 0.7
2017-Sep-20 16:48N 24°16' E 120°31'1 3.5
2017-Sep-20 16:27N 24°17' E 120°31'3 7.0
2017-Sep-20 16:00N 24°17' E 120°27'3 5.2
2017-Sep-20 15:30N 24°20' E 120°28'5 9.6
2017-Sep-20 15:00N 24°24' E 120°30'1212.2
2017-Sep-20 14:00N 24°35' E 120°36'612.7
2017-Sep-20 13:30N 24°40' E 120°39'612.7
2017-Sep-20 13:00N 24°46' E 120°43'612.9
2017-Sep-20 12:30N 24°51' E 120°46'713.3
2017-Sep-20 12:00N 24°57' E 120°50'1813.3
2017-Sep-20 10:37N 25°11' E 121°03'213.4
2017-Sep-20 10:27N 25°12' E 121°06'1111.6
2017-Sep-20 09:31N 25°13' E 121°18'212.1
2017-Sep-20 09:21N 25°12' E 121°19'4 0.9
2017-Sep-20 04:28N 25°10' E 121°23'19010.7
2017-Sep-19 10:41N 27°47' E 123°22'1616.3
2017-Sep-19 09:42N 27°60' E 123°34'316.3
2017-Sep-19 09:30N 28°02' E 123°36'916.6
2017-Sep-19 08:59N 28°09' E 123°42'816.5
2017-Sep-19 08:30N 28°15' E 123°47'17315.9
2017-Sep-18 21:36N 30°26' E 125°58'316.1
2017-Sep-18 21:27N 30°28' E 126°00'6916.0
2017-Sep-18 17:07N 31°27' E 126°43'  
2017-Sep-15 02:55N 34°07' E 134°56'716.1
2017-Sep-15 02:30N 34°13' E 134°57'815.3
2017-Sep-15 01:59N 34°21' E 134°60'816.7
2017-Sep-15 01:31N 34°27' E 135°06'816.8
2017-Sep-15 01:01N 34°33' E 135°13'713.0
2017-Sep-15 00:30N 34°39' E 135°16'2 3.5
2017-Sep-14 23:57N 34°41' E 135°15'0 0.0
2017-Sep-14 23:15N 34°41' E 135°15'0 0.0
2017-Sep-14 22:39N 34°41' E 135°15'0 0.0
2017-Sep-14 22:27N 34°41' E 135°15'0 0.0
2017-Sep-14 21:51N 34°41' E 135°15'0 0.0
2017-Sep-14 21:27N 34°41' E 135°15'0 0.0
2017-Sep-14 20:57N 34°41' E 135°15'0 0.0
2017-Sep-14 20:27N 34°41' E 135°15'0 0.0
2017-Sep-14 19:57N 34°41' E 135°15'0 0.0
2017-Sep-14 19:27N 34°41' E 135°15'0 0.0
2017-Sep-14 18:51N 34°41' E 135°15'0 0.0
2017-Sep-14 18:27N 34°41' E 135°15'0 0.0
2017-Sep-14 17:57N 34°41' E 135°15'0 0.0
2017-Sep-14 17:21N 34°41' E 135°15'0 0.0
2017-Sep-14 16:51N 34°41' E 135°15'0 0.0
2017-Sep-14 16:27N 34°41' E 135°15'0 0.0
2017-Sep-14 15:57N 34°41' E 135°15'0 0.0
2017-Sep-14 15:21N 34°41' E 135°15'0 0.1
2017-Sep-14 14:57N 34°41' E 135°15'0 0.1
2017-Sep-14 14:27N 34°41' E 135°15'0 0.0
2017-Sep-14 13:57N 34°41' E 135°15'0 0.0
2017-Sep-14 13:27N 34°41' E 135°15'0 0.0
2017-Sep-14 12:57N 34°41' E 135°15'0 0.0
2017-Sep-14 12:27N 34°41' E 135°15'0 0.1
2017-Sep-14 11:57N 34°41' E 135°15'0 0.1
2017-Sep-14 11:27N 34°41' E 135°15'1 2.7
2017-Sep-14 11:00N 34°40' E 135°15'3 6.3
2017-Sep-14 10:30N 34°37' E 135°18'1 2.0
2017-Sep-14 10:00N 34°38' E 135°19'4 7.2
2017-Sep-14 09:30N 34°38' E 135°23'2 4.0
2017-Sep-14 09:00N 34°39' E 135°26'0 0.0
2017-Sep-14 08:26N 34°39' E 135°26'0 0.0
2017-Sep-14 07:56N 34°39' E 135°26'0 0.0
2017-Sep-14 07:26N 34°39' E 135°26'0 0.0
2017-Sep-14 06:44N 34°39' E 135°26'0 0.0
2017-Sep-14 06:26N 34°39' E 135°26'0 0.0
2017-Sep-14 05:44N 34°39' E 135°26'0 0.0
2017-Sep-14 05:14N 34°39' E 135°26'0 0.0
2017-Sep-14 04:38N 34°39' E 135°26'0 0.1
2017-Sep-14 04:26N 34°39' E 135°26'0 0.0
2017-Sep-14 03:56N 34°39' E 135°26'0 0.0
2017-Sep-14 03:20N 34°39' E 135°26'0 0.0
2017-Sep-14 02:56N 34°39' E 135°26'0 0.0
2017-Sep-14 02:14N 34°39' E 135°26'0 0.1
2017-Sep-14 01:56N 34°39' E 135°26'0 0.0
2017-Sep-14 01:14N 34°39' E 135°26'0 0.0
2017-Sep-14 00:56N 34°39' E 135°26'0 0.0
2017-Sep-14 00:20N 34°39' E 135°26'0 0.4
2017-Sep-14 00:00N 34°39' E 135°25'2 4.8
2017-Sep-13 23:30N 34°38' E 135°23'5 8.8
2017-Sep-13 23:00N 34°35' E 135°18'613.3
2017-Sep-13 22:30N 34°31' E 135°13'714.6
2017-Sep-13 22:00N 34°26' E 135°06'715.0
2017-Sep-13 21:30N 34°20' E 135°01'713.2
2017-Sep-13 21:00N 34°13' E 134°59'612.7
2017-Sep-13 20:30N 34°07' E 134°59'815.6
2017-Sep-13 20:00N 33°59' E 134°57'  
Track history (hours):
 
Tides and Currents Weather Stations Pressure Air Temp Water Temp Dewpoint Dewpoint Depression Visibility Wind Speed Wind Dir Waves Ship Positions

Wan Hai 232

Last reported at 2017-Sep-21 16:28 UTC. Time now 2017-Sep-22 09:50 UTC.
Position N 22°49' E 116°35'.

Length 191 m; draft 8.8 m.

Type: Cargo ship. MMSI: 565131000.

Date/timePositionNaut miles runAvg speedWind from/ knotsBaromVisibWave heightAir tempDewpointWater temp
2017-Sep-21 16:28N 22°49' E 116°35'716.0
2017-Sep-21 16:00N 22°52' E 116°43'815.9
2017-Sep-21 15:30N 22°55' E 116°51'815.9
2017-Sep-21 15:00N 22°58' E 116°58'815.8
2017-Sep-21 14:30N 23°02' E 117°06'815.6
2017-Sep-21 13:59N 23°06' E 117°13'815.9
2017-Sep-21 13:29N 23°10' E 117°21'1315.5
2017-Sep-21 12:37N 23°13' E 117°35'416.5
2017-Sep-21 12:22N 23°14' E 117°39'7716.3
2017-Sep-21 07:38N 23°47' E 118°55'217.2
2017-Sep-21 07:29N 23°48' E 118°58'2116.9
2017-Sep-21 06:15N 23°55' E 119°19'417.2
2017-Sep-21 06:00N 23°57' E 119°24'817.1
2017-Sep-21 05:30N 23°60' E 119°32'817.0
2017-Sep-21 05:00N 24°03' E 119°41'917.0
2017-Sep-21 04:30N 24°06' E 119°50'816.3
2017-Sep-21 03:59N 24°09' E 119°59'816.2
2017-Sep-21 03:30N 24°11' E 120°07'1116.0
2017-Sep-21 02:50N 24°15' E 120°18'515.7
2017-Sep-21 02:30N 24°17' E 120°23'7 0.7
2017-Sep-20 16:48N 24°16' E 120°31'1 3.5
2017-Sep-20 16:27N 24°17' E 120°31'3 7.0
2017-Sep-20 16:00N 24°17' E 120°27'3 5.2
2017-Sep-20 15:30N 24°20' E 120°28'5 9.6
2017-Sep-20 15:00N 24°24' E 120°30'1212.2
2017-Sep-20 14:00N 24°35' E 120°36'612.7
2017-Sep-20 13:30N 24°40' E 120°39'612.7
2017-Sep-20 13:00N 24°46' E 120°43'612.9
2017-Sep-20 12:30N 24°51' E 120°46'713.3
2017-Sep-20 12:00N 24°57' E 120°50'1813.3
2017-Sep-20 10:37N 25°11' E 121°03'213.4
2017-Sep-20 10:27N 25°12' E 121°06'1111.6
2017-Sep-20 09:31N 25°13' E 121°18'212.1
2017-Sep-20 09:21N 25°12' E 121°19'4 0.9
2017-Sep-20 04:28N 25°10' E 121°23'19010.7
2017-Sep-19 10:41N 27°47' E 123°22'1616.3
2017-Sep-19 09:42N 27°60' E 123°34'316.3
2017-Sep-19 09:30N 28°02' E 123°36'916.6
2017-Sep-19 08:59N 28°09' E 123°42'816.5
2017-Sep-19 08:30N 28°15' E 123°47'17315.9
2017-Sep-18 21:36N 30°26' E 125°58'316.1
2017-Sep-18 21:27N 30°28' E 126°00'6916.0
2017-Sep-18 17:07N 31°27' E 126°43'  
2017-Sep-15 02:55N 34°07' E 134°56'716.1
2017-Sep-15 02:30N 34°13' E 134°57'815.3
2017-Sep-15 01:59N 34°21' E 134°60'816.7
2017-Sep-15 01:31N 34°27' E 135°06'816.8
2017-Sep-15 01:01N 34°33' E 135°13'713.0
2017-Sep-15 00:30N 34°39' E 135°16'2 3.5
2017-Sep-14 23:57N 34°41' E 135°15'0 0.0
2017-Sep-14 23:15N 34°41' E 135°15'0 0.0
2017-Sep-14 22:39N 34°41' E 135°15'0 0.0
2017-Sep-14 22:27N 34°41' E 135°15'0 0.0
2017-Sep-14 21:51N 34°41' E 135°15'0 0.0
2017-Sep-14 21:27N 34°41' E 135°15'0 0.0
2017-Sep-14 20:57N 34°41' E 135°15'0 0.0
2017-Sep-14 20:27N 34°41' E 135°15'0 0.0
2017-Sep-14 19:57N 34°41' E 135°15'0 0.0
2017-Sep-14 19:27N 34°41' E 135°15'0 0.0
2017-Sep-14 18:51N 34°41' E 135°15'0 0.0
2017-Sep-14 18:27N 34°41' E 135°15'0 0.0
2017-Sep-14 17:57N 34°41' E 135°15'0 0.0
2017-Sep-14 17:21N 34°41' E 135°15'0 0.0
2017-Sep-14 16:51N 34°41' E 135°15'0 0.0
2017-Sep-14 16:27N 34°41' E 135°15'0 0.0
2017-Sep-14 15:57N 34°41' E 135°15'0 0.0
2017-Sep-14 15:21N 34°41' E 135°15'0 0.1
2017-Sep-14 14:57N 34°41' E 135°15'0 0.1
2017-Sep-14 14:27N 34°41' E 135°15'0 0.0
2017-Sep-14 13:57N 34°41' E 135°15'0 0.0
2017-Sep-14 13:27N 34°41' E 135°15'0 0.0
2017-Sep-14 12:57N 34°41' E 135°15'0 0.0
2017-Sep-14 12:27N 34°41' E 135°15'0 0.1
2017-Sep-14 11:57N 34°41' E 135°15'0 0.1
2017-Sep-14 11:27N 34°41' E 135°15'1 2.7
2017-Sep-14 11:00N 34°40' E 135°15'3 6.3
2017-Sep-14 10:30N 34°37' E 135°18'1 2.0
2017-Sep-14 10:00N 34°38' E 135°19'4 7.2
2017-Sep-14 09:30N 34°38' E 135°23'2 4.0
2017-Sep-14 09:00N 34°39' E 135°26'0 0.0
2017-Sep-14 08:26N 34°39' E 135°26'0 0.0
2017-Sep-14 07:56N 34°39' E 135°26'0 0.0
2017-Sep-14 07:26N 34°39' E 135°26'0 0.0
2017-Sep-14 06:44N 34°39' E 135°26'0 0.0
2017-Sep-14 06:26N 34°39' E 135°26'0 0.0
2017-Sep-14 05:44N 34°39' E 135°26'0 0.0
2017-Sep-14 05:14N 34°39' E 135°26'0 0.0
2017-Sep-14 04:38N 34°39' E 135°26'0 0.1
2017-Sep-14 04:26N 34°39' E 135°26'0 0.0
2017-Sep-14 03:56N 34°39' E 135°26'0 0.0
2017-Sep-14 03:20N 34°39' E 135°26'0 0.0
2017-Sep-14 02:56N 34°39' E 135°26'0 0.0
2017-Sep-14 02:14N 34°39' E 135°26'0 0.1
2017-Sep-14 01:56N 34°39' E 135°26'0 0.0
2017-Sep-14 01:14N 34°39' E 135°26'0 0.0
2017-Sep-14 00:56N 34°39' E 135°26'0 0.0
2017-Sep-14 00:20N 34°39' E 135°26'0 0.4
2017-Sep-14 00:00N 34°39' E 135°25'2 4.8
2017-Sep-13 23:30N 34°38' E 135°23'5 8.8
2017-Sep-13 23:00N 34°35' E 135°18'613.3
2017-Sep-13 22:30N 34°31' E 135°13'714.6
2017-Sep-13 22:00N 34°26' E 135°06'715.0
2017-Sep-13 21:30N 34°20' E 135°01'713.2
2017-Sep-13 21:00N 34°13' E 134°59'612.7
2017-Sep-13 20:30N 34°07' E 134°59'815.6
2017-Sep-13 20:00N 33°59' E 134°57'  

Dump ship's entire track history